Cape May, New Jersey
Current Conditions -  °F | °C
As of 11:35 AM on Saturday 25 Oct 2014 (Local Time) from KWWD Reporting Station
Clear Clear  
Wind Chill: 61°   Ceiling: Unl
Heat Index: 61°   Visibility: 10mi
Dew Point: 45°   Wind: 9mph
Humidity: 55%   Direction: 270°W
Pressure: 29.92"   Gusts: NA
Location:  38.94°N, 74.91°W
Report Text: KWWD 251535Z AUTO 27008KT 10SM CLR 16/07 A2992 RMK AO1
Loading
Personal Weather Stations






























Interactive Weather Map
Tropical Storm Tracking
New forecast layout! Learn more

10-Day Weather Forecast

Advertisements
Track Severe Weather on mobile